Time;durP1;ratioP1;P1;durP2;ratioP2;P2;SDS_P1;SDS_P2;PMS_P1;PMS_P2;Temp;Humidity;BMP_temperature;BMP_pressure;BME280_temperature;BME280_humidity;BME280_pressure;Samples;Min_cycle;Max_cycle;Signal;HPM_P1;HPM_P2
2022/01/15 00:00:58;;;;;;;189.38;21.73;;;6.20;99.90;;;;;;5088789;28;20036;-72
2022/01/15 00:03:23;;;;;;;176.88;21.27;;;6.10;99.90;;;;;;5105372;28;20074;-72
2022/01/15 00:05:49;;;;;;;143.05;21.23;;;6.10;99.90;;;;;;5106685;28;20044;-72
2022/01/15 00:08:14;;;;;;;283.20;24.63;;;6.20;99.90;;;;;;5082156;28;20044;-72
2022/01/15 00:10:40;;;;;;;245.68;24.35;;;6.10;99.90;;;;;;5091393;28;20036;-72
2022/01/15 00:13:13;;;;;;;187.35;23.83;;;6.10;99.90;;;;;;5085865;28;20066;-72
2022/01/15 00:15:46;;;;;;;202.27;24.10;;;6.10;99.90;;;;;;5091753;28;21174;-72
2022/01/15 00:18:14;;;;;;;155.07;21.80;;;6.00;99.90;;;;;;5085712;28;20041;-72
2022/01/15 00:20:39;;;;;;;138.82;18.75;;;6.10;99.90;;;;;;5089800;28;20043;-72
2022/01/15 00:23:05;;;;;;;126.57;17.58;;;6.00;99.90;;;;;;5100035;28;20509;-72
2022/01/15 00:25:32;;;;;;;134.65;17.30;;;6.00;99.90;;;;;;5088714;28;20032;-72
2022/01/15 00:27:59;;;;;;;98.93;17.17;;;6.10;99.90;;;;;;5085727;28;20033;-72
2022/01/15 00:30:25;;;;;;;145.85;19.15;;;6.10;99.90;;;;;;5078359;28;20040;-72
2022/01/15 00:32:52;;;;;;;201.13;21.10;;;6.10;99.90;;;;;;5088708;28;20558;-72
2022/01/15 00:35:19;;;;;;;227.73;20.92;;;6.00;99.90;;;;;;5089424;28;20051;-72
2022/01/15 00:37:45;;;;;;;203.93;22.10;;;6.00;99.90;;;;;;5087263;28;20043;-72
2022/01/15 00:40:14;;;;;;;178.02;21.63;;;6.10;99.90;;;;;;5076983;28;20048;-72
2022/01/15 00:42:40;;;;;;;117.10;17.75;;;6.10;99.90;;;;;;5084089;28;20036;-72
2022/01/15 00:45:11;;;;;;;144.15;20.35;;;6.00;99.90;;;;;;5084209;28;20044;-72
2022/01/15 00:47:37;;;;;;;146.32;19.77;;;6.10;99.90;;;;;;5087141;28;20157;-72
2022/01/15 00:50:05;;;;;;;178.93;20.13;;;6.10;99.90;;;;;;5086731;28;20147;-72
2022/01/15 00:52:30;;;;;;;219.05;21.85;;;6.00;99.90;;;;;;5091036;28;20039;-72
2022/01/15 00:54:56;;;;;;;128.90;17.67;;;6.00;99.90;;;;;;5090719;28;20040;-72
2022/01/15 00:57:22;;;;;;;142.60;17.98;;;6.00;99.90;;;;;;5107068;28;20067;-72
2022/01/15 00:59:48;;;;;;;74.03;15.13;;;6.00;99.90;;;;;;5100037;28;20257;-72
2022/01/15 01:02:14;;;;;;;76.68;14.10;;;6.00;99.90;;;;;;5105857;28;20146;-72
2022/01/15 01:04:40;;;;;;;175.98;18.98;;;6.00;99.90;;;;;;5084272;28;20471;-72
2022/01/15 01:07:05;;;;;;;118.90;17.08;;;6.10;99.90;;;;;;5084442;28;20040;-72
2022/01/15 01:12:27;;;;;;;103.40;16.05;;;6.10;99.90;;;;;;5083290;28;20044;-72
2022/01/15 01:20:56;;;;;;;114.53;16.00;;;6.00;99.90;;;;;;5079510;28;20047;-72
2022/01/15 01:23:22;;;;;;;63.65;13.90;;;6.00;99.90;;;;;;5089095;28;20082;-72
2022/01/15 01:25:52;;;;;;;67.35;14.02;;;6.00;99.90;;;;;;5092455;28;20036;-72
2022/01/15 01:28:32;;;;;;;88.47;15.38;;;6.00;99.90;;;;;;5078377;28;20071;-72
2022/01/15 01:31:05;;;;;;;95.80;15.55;;;6.00;99.90;;;;;;5089135;28;20419;-73
2022/01/15 01:33:38;;;;;;;106.70;16.77;;;6.00;99.90;;;;;;5078459;28;20044;-72
2022/01/15 01:38:38;;;;;;;73.15;14.57;;;6.00;99.90;;;;;;5089515;28;20136;-72
2022/01/15 01:41:06;;;;;;;137.48;17.35;;;6.00;99.90;;;;;;5089999;28;20040;-72
2022/01/15 01:43:46;;;;;;;60.88;13.38;;;5.90;99.90;;;;;;5078140;28;20041;-72
2022/01/15 01:48:44;;;;;;;63.83;12.40;;;6.00;99.90;;;;;;5084161;28;20080;-72
2022/01/15 01:51:20;;;;;;;69.43;13.90;;;6.00;99.90;;;;;;5082827;28;20039;-72
2022/01/15 01:53:47;;;;;;;88.50;14.48;;;5.90;99.90;;;;;;5090081;28;20036;-72
2022/01/15 01:56:12;;;;;;;98.40;14.68;;;6.00;99.90;;;;;;5084504;28;20055;-72
2022/01/15 01:58:38;;;;;;;106.97;15.48;;;6.00;99.90;;;;;;5090915;28;20032;-72
2022/01/15 02:01:03;;;;;;;105.97;14.50;;;5.90;99.90;;;;;;5093173;28;20101;-73
2022/01/15 02:03:29;;;;;;;73.85;14.02;;;6.00;99.90;;;;;;5089749;28;20032;-73
2022/01/15 02:05:54;;;;;;;106.55;14.32;;;6.00;99.90;;;;;;5089343;28;20086;-72
2022/01/15 02:08:20;;;;;;;109.38;15.23;;;5.90;99.90;;;;;;5094478;28;20157;-72
2022/01/15 02:10:45;;;;;;;137.63;16.33;;;6.00;99.90;;;;;;5084141;28;20035;-72
2022/01/15 02:13:13;;;;;;;143.25;16.27;;;6.00;99.90;;;;;;5091498;28;20046;-72
2022/01/15 02:15:38;;;;;;;130.82;16.73;;;5.90;99.90;;;;;;5084318;28;20052;-73
2022/01/15 02:18:04;;;;;;;86.13;14.52;;;6.00;99.90;;;;;;5082557;28;20051;-72
2022/01/15 02:25:48;;;;;;;160.02;18.02;;;5.90;99.90;;;;;;5089328;28;20273;-72
2022/01/15 02:28:15;;;;;;;193.13;19.53;;;6.00;99.90;;;;;;5085027;28;20039;-72
2022/01/15 02:30:40;;;;;;;111.78;15.43;;;5.90;99.90;;;;;;5081337;28;20048;-72
2022/01/15 02:33:08;;;;;;;130.90;16.90;;;5.80;99.90;;;;;;5096733;28;20105;-72
2022/01/15 02:35:34;;;;;;;123.38;15.65;;;5.90;99.90;;;;;;5111619;27;20035;-72
2022/01/15 02:38:04;;;;;;;204.63;19.15;;;5.90;99.90;;;;;;5082554;28;20032;-72
2022/01/15 02:40:33;;;;;;;179.05;17.88;;;6.00;99.90;;;;;;5085989;28;20399;-72
2022/01/15 02:43:04;;;;;;;143.60;16.23;;;5.80;99.90;;;;;;5085929;28;20081;-73
2022/01/15 02:45:34;;;;;;;118.35;15.18;;;5.80;99.90;;;;;;5079743;28;20044;-72
2022/01/15 02:48:14;;;;;;;137.30;15.45;;;5.90;99.90;;;;;;5085060;28;20047;-72
2022/01/15 02:50:40;;;;;;;145.13;15.77;;;5.80;99.90;;;;;;5084073;28;20047;-72
2022/01/15 02:53:07;;;;;;;167.32;16.17;;;5.80;99.90;;;;;;5058914;28;20040;-72
2022/01/15 02:55:33;;;;;;;159.20;15.90;;;5.90;99.90;;;;;;5079876;28;20475;-72
2022/01/15 02:57:58;;;;;;;105.45;15.57;;;5.80;99.90;;;;;;5086458;28;20043;-72
2022/01/15 03:00:28;;;;;;;99.20;13.18;;;5.80;99.90;;;;;;5084236;28;20032;-72
2022/01/15 03:02:53;;;;;;;167.98;16.10;;;5.90;99.90;;;;;;5086513;28;20044;-72
2022/01/15 03:05:20;;;;;;;113.93;14.90;;;5.80;99.90;;;;;;5095686;28;20033;-72
2022/01/15 03:07:46;;;;;;;86.57;11.70;;;5.90;99.90;;;;;;5088144;28;20071;-72
2022/01/15 03:10:12;;;;;;;93.70;11.30;;;5.90;99.90;;;;;;5081350;28;20051;-72
2022/01/15 03:12:38;;;;;;;87.03;11.45;;;5.80;99.90;;;;;;5079340;28;20032;-72
2022/01/15 03:15:06;;;;;;;85.70;11.82;;;5.80;99.90;;;;;;5085132;28;20043;-72
2022/01/15 03:17:32;;;;;;;61.58;9.63;;;5.90;99.90;;;;;;5082264;28;20032;-72
2022/01/15 03:19:59;;;;;;;45.70;7.78;;;5.90;99.90;;;;;;5081691;28;20473;-72
2022/01/15 03:22:24;;;;;;;45.70;8.38;;;5.90;99.90;;;;;;5087410;28;20035;-73
2022/01/15 03:24:50;;;;;;;38.17;8.75;;;5.90;99.90;;;;;;5070166;28;20040;-72
2022/01/15 03:27:16;;;;;;;44.92;8.30;;;5.80;99.90;;;;;;5084902;28;20090;-72
2022/01/15 03:29:42;;;;;;;43.80;8.23;;;5.80;99.90;;;;;;5087356;28;20537;-72
2022/01/15 03:32:09;;;;;;;47.33;8.50;;;5.70;99.90;;;;;;5086299;28;20063;-72
2022/01/15 03:34:34;;;;;;;23.90;5.15;;;5.80;99.90;;;;;;5081332;28;20058;-72
2022/01/15 03:37:01;;;;;;;16.85;4.28;;;5.80;99.90;;;;;;5075171;28;20055;-72
2022/01/15 03:39:26;;;;;;;19.83;4.70;;;5.80;99.90;;;;;;5084856;28;20036;-72
2022/01/15 03:41:52;;;;;;;19.67;5.10;;;5.80;99.90;;;;;;5088111;28;20052;-72
2022/01/15 03:44:18;;;;;;;36.63;6.47;;;5.80;99.90;;;;;;5086098;28;20259;-72
2022/01/15 03:46:44;;;;;;;37.50;6.25;;;5.70;99.90;;;;;;5087000;28;20050;-72
2022/01/15 03:49:10;;;;;;;27.38;5.72;;;5.70;99.90;;;;;;5087493;28;20487;-72
2022/01/15 03:51:36;;;;;;;22.60;5.32;;;5.70;99.90;;;;;;5087547;28;20035;-72
2022/01/15 03:54:02;;;;;;;24.27;4.68;;;5.80;99.90;;;;;;5088679;28;20036;-72
2022/01/15 03:56:27;;;;;;;17.13;4.20;;;5.80;99.90;;;;;;5086131;28;20536;-72
2022/01/15 03:58:53;;;;;;;18.63;4.00;;;5.80;99.90;;;;;;5086577;28;20040;-72
2022/01/15 04:01:19;;;;;;;26.00;4.75;;;5.80;99.90;;;;;;5085095;28;20035;-72
2022/01/15 04:03:44;;;;;;;26.17;5.57;;;5.80;99.90;;;;;;5087539;28;20157;-72
2022/01/15 04:06:10;;;;;;;26.67;5.20;;;5.70;99.90;;;;;;5076648;28;20475;-72
2022/01/15 04:08:35;;;;;;;32.08;5.68;;;5.70;99.90;;;;;;5090452;28;20450;-72
2022/01/15 04:11:01;;;;;;;30.67;5.93;;;5.70;99.90;;;;;;5089540;28;20063;-72
2022/01/15 04:13:26;;;;;;;30.65;7.32;;;5.70;99.90;;;;;;5088634;28;20044;-72
2022/01/15 04:15:53;;;;;;;27.17;6.75;;;5.70;99.90;;;;;;5090630;28;20475;-72
2022/01/15 04:18:23;;;;;;;45.83;7.97;;;5.70;99.90;;;;;;5087977;28;20074;-72
2022/01/15 04:20:48;;;;;;;32.55;6.38;;;5.70;99.90;;;;;;5090855;28;20079;-72
2022/01/15 04:23:14;;;;;;;42.58;6.88;;;5.70;99.90;;;;;;5091414;28;20104;-72
2022/01/15 04:25:40;;;;;;;36.28;7.03;;;5.80;99.90;;;;;;5088689;28;20532;-72
2022/01/15 04:28:09;;;;;;;36.97;7.10;;;5.80;99.90;;;;;;5089101;28;20547;-72
2022/01/15 04:30:36;;;;;;;50.88;7.43;;;5.70;99.90;;;;;;5083937;28;20043;-72
2022/01/15 04:33:02;;;;;;;42.45;7.05;;;5.70;99.90;;;;;;5081617;28;20055;-72
2022/01/15 04:35:27;;;;;;;38.33;7.28;;;5.70;99.90;;;;;;5067398;28;20099;-72
2022/01/15 04:38:00;;;;;;;32.55;6.22;;;5.70;99.90;;;;;;5084226;28;20036;-72
2022/01/15 04:40:26;;;;;;;38.53;6.63;;;5.70;99.90;;;;;;5087906;28;20078;-72
2022/01/15 04:42:52;;;;;;;33.65;5.85;;;5.80;99.90;;;;;;5087051;28;20067;-72
2022/01/15 04:45:17;;;;;;;29.13;6.50;;;5.70;99.90;;;;;;5082035;28;20044;-72
2022/01/15 04:47:43;;;;;;;23.73;5.50;;;5.70;99.90;;;;;;5089176;28;20032;-72
2022/01/15 04:50:13;;;;;;;26.23;5.50;;;5.70;99.90;;;;;;5089352;28;20047;-72
2022/01/15 04:52:40;;;;;;;23.40;5.72;;;5.70;99.90;;;;;;5089305;28;20127;-72
2022/01/15 04:55:07;;;;;;;18.30;5.20;;;5.70;99.90;;;;;;5089206;28;20044;-72
2022/01/15 04:57:33;;;;;;;20.85;4.88;;;5.70;99.90;;;;;;5090614;28;20051;-72
2022/01/15 04:59:58;;;;;;;26.42;5.72;;;5.70;99.90;;;;;;5088819;28;20267;-72
2022/01/15 05:02:25;;;;;;;25.92;5.47;;;5.60;99.90;;;;;;5089032;28;20088;-72
2022/01/15 05:04:50;;;;;;;27.45;5.57;;;5.70;99.90;;;;;;5074700;28;20047;-72
2022/01/15 05:07:16;;;;;;;30.45;5.80;;;5.70;99.90;;;;;;5085026;28;20039;-72
2022/01/15 05:09:41;;;;;;;23.33;5.30;;;5.60;99.90;;;;;;5091100;28;20035;-72
2022/01/15 05:12:22;;;;;;;31.55;5.55;;;5.60;99.90;;;;;;5089323;28;20529;-72
2022/01/15 05:14:48;;;;;;;37.60;6.10;;;5.60;99.90;;;;;;5070560;28;20048;-72
2022/01/15 05:17:13;;;;;;;43.13;6.38;;;5.60;99.90;;;;;;5082902;28;20051;-72
2022/01/15 05:19:39;;;;;;;29.13;5.85;;;5.60;99.90;;;;;;5086765;28;20040;-72
2022/01/15 05:22:05;;;;;;;30.65;5.93;;;5.60;99.90;;;;;;5089392;28;20414;-72
2022/01/15 05:24:32;;;;;;;28.90;5.55;;;5.60;99.90;;;;;;5087606;28;20096;-72
2022/01/15 05:26:58;;;;;;;21.75;5.65;;;5.70;99.90;;;;;;5103554;28;20044;-72
2022/01/15 05:29:24;;;;;;;31.02;6.75;;;5.60;99.90;;;;;;5086735;28;20090;-72
2022/01/15 05:31:49;;;;;;;27.98;6.85;;;5.60;99.90;;;;;;5087149;28;20146;-72
2022/01/15 05:34:15;;;;;;;26.15;6.70;;;5.60;99.90;;;;;;5086183;28;20451;-72
2022/01/15 05:36:40;;;;;;;29.67;7.40;;;5.70;99.90;;;;;;5087616;28;20061;-72
2022/01/15 05:39:06;;;;;;;30.48;6.72;;;5.60;99.90;;;;;;5089085;28;20081;-72
2022/01/15 05:41:33;;;;;;;26.25;7.05;;;5.60;99.90;;;;;;5088214;28;20123;-73
2022/01/15 05:44:01;;;;;;;25.08;6.63;;;5.50;99.90;;;;;;5087144;28;20040;-73
2022/01/15 05:46:33;;;;;;;30.38;7.47;;;5.50;99.90;;;;;;5105138;28;20055;-72
2022/01/15 05:49:00;;;;;;;31.70;7.40;;;5.40;99.90;;;;;;5100451;28;20126;-72
2022/01/15 05:51:29;;;;;;;28.80;7.43;;;5.50;99.90;;;;;;5089230;28;20066;-73
2022/01/15 05:53:57;;;;;;;22.80;6.68;;;5.50;99.90;;;;;;5087972;28;20514;-73
2022/01/15 05:56:22;;;;;;;26.17;6.50;;;5.50;99.90;;;;;;5088437;28;20036;-72
2022/01/15 05:58:48;;;;;;;27.35;6.47;;;5.40;99.90;;;;;;5095016;28;20379;-72
2022/01/15 06:01:14;;;;;;;27.73;7.10;;;5.50;99.90;;;;;;5087353;28;20306;-71
2022/01/15 06:03:39;;;;;;;24.58;6.93;;;5.40;99.90;;;;;;5088021;28;20059;-72
2022/01/15 06:06:05;;;;;;;27.27;6.75;;;5.40;99.90;;;;;;5088536;28;20510;-72
2022/01/15 06:08:30;;;;;;;25.95;6.32;;;5.40;99.90;;;;;;5089545;28;20358;-72
2022/01/15 06:10:56;;;;;;;23.08;5.88;;;5.40;99.90;;;;;;5085539;28;20044;-73
2022/01/15 06:13:21;;;;;;;29.00;6.68;;;5.40;99.90;;;;;;5077616;28;20040;-72
2022/01/15 06:15:47;;;;;;;30.27;7.15;;;5.40;99.90;;;;;;5082411;28;20121;-72
2022/01/15 06:18:12;;;;;;;30.00;6.80;;;5.50;99.90;;;;;;5087540;28;20169;-73
2022/01/15 06:20:39;;;;;;;32.58;8.07;;;5.40;99.90;;;;;;5074649;28;20037;-72
2022/01/15 06:23:04;;;;;;;29.15;6.72;;;5.40;99.90;;;;;;5087074;28;20039;-72
2022/01/15 06:25:30;;;;;;;28.05;6.93;;;5.40;99.90;;;;;;5074118;28;20047;-72
2022/01/15 06:27:55;;;;;;;31.00;6.85;;;5.40;99.90;;;;;;5081048;28;20059;-72
2022/01/15 06:30:21;;;;;;;27.33;6.45;;;5.40;99.90;;;;;;5085346;28;20114;-72
2022/01/15 06:32:46;;;;;;;26.38;6.38;;;5.40;99.90;;;;;;5082701;28;20391;-72
2022/01/15 06:35:13;;;;;;;29.58;6.20;;;5.40;99.90;;;;;;5080759;28;20047;-73
2022/01/15 06:37:40;;;;;;;31.48;6.63;;;5.30;99.90;;;;;;5082734;28;20163;-73
2022/01/15 06:40:06;;;;;;;27.02;6.40;;;5.40;99.90;;;;;;5078676;28;20047;-72
2022/01/15 06:42:32;;;;;;;27.00;6.32;;;5.40;99.90;;;;;;5079014;28;20037;-72
2022/01/15 06:44:58;;;;;;;27.23;6.32;;;5.30;99.90;;;;;;5084734;28;20608;-71
2022/01/15 06:47:25;;;;;;;25.67;5.97;;;5.40;99.90;;;;;;5087408;28;20036;-72
2022/01/15 06:49:50;;;;;;;28.30;6.45;;;5.30;99.90;;;;;;5078756;28;20119;-73
2022/01/15 06:52:16;;;;;;;34.17;7.05;;;5.40;99.90;;;;;;5086731;28;20130;-72
2022/01/15 06:54:41;;;;;;;30.98;6.55;;;5.40;99.90;;;;;;5077944;28;20127;-73
2022/01/15 06:57:07;;;;;;;29.85;7.53;;;5.40;99.90;;;;;;5079116;28;20036;-72
2022/01/15 06:59:32;;;;;;;44.05;7.63;;;5.30;99.90;;;;;;5087737;28;20043;-73
2022/01/15 07:01:58;;;;;;;31.77;7.00;;;5.40;99.90;;;;;;5086394;28;20044;-72
2022/01/15 07:04:23;;;;;;;25.58;7.25;;;5.30;99.90;;;;;;5088439;28;20414;-72
2022/01/15 07:06:49;;;;;;;29.35;7.43;;;5.30;99.90;;;;;;5086661;28;20638;-72
2022/01/15 07:09:14;;;;;;;32.95;7.22;;;5.30;99.90;;;;;;5082462;28;20048;-72
2022/01/15 07:11:40;;;;;;;29.80;6.85;;;5.40;99.90;;;;;;5083034;28;20040;-72
2022/01/15 07:14:06;;;;;;;25.92;6.65;;;5.30;99.90;;;;;;5081101;28;20092;-72
2022/01/15 07:16:31;;;;;;;34.47;7.43;;;5.30;99.90;;;;;;5077289;28;20040;-73
2022/01/15 07:18:57;;;;;;;32.35;7.03;;;5.30;99.90;;;;;;5083249;28;20040;-73
2022/01/15 07:21:22;;;;;;;33.33;7.13;;;5.30;99.90;;;;;;5087472;28;20047;-73
2022/01/15 07:23:48;;;;;;;28.08;5.80;;;5.30;99.90;;;;;;5086658;28;20043;-72
2022/01/15 07:26:14;;;;;;;24.65;6.60;;;5.30;99.90;;;;;;5087591;28;20479;-72
2022/01/15 07:28:39;;;;;;;28.23;6.05;;;5.30;99.90;;;;;;5083584;28;20561;-73
2022/01/15 07:31:05;;;;;;;31.77;6.95;;;5.30;99.90;;;;;;5086961;28;21437;-72
2022/01/15 07:33:30;;;;;;;26.10;6.20;;;5.20;99.90;;;;;;5085139;28;20089;-72
2022/01/15 07:35:56;;;;;;;35.90;6.95;;;5.30;99.90;;;;;;5079961;28;20518;-72
2022/01/15 07:38:22;;;;;;;28.58;6.85;;;5.30;99.90;;;;;;5074193;28;20045;-71
2022/01/15 07:40:48;;;;;;;34.72;7.25;;;5.20;99.90;;;;;;5081549;28;20040;-72
2022/01/15 07:43:14;;;;;;;24.83;5.95;;;5.20;99.90;;;;;;5092955;28;20059;-71
2022/01/15 07:45:40;;;;;;;32.67;7.50;;;5.20;99.90;;;;;;5093002;28;20079;-71
2022/01/15 07:48:05;;;;;;;33.75;6.78;;;5.30;99.90;;;;;;5089687;28;20028;-72
2022/01/15 07:50:31;;;;;;;37.33;7.38;;;5.20;99.90;;;;;;5090239;28;20475;-72
2022/01/15 07:52:58;;;;;;;32.10;7.75;;;5.30;99.90;;;;;;5082974;28;20032;-71
2022/01/15 07:55:24;;;;;;;33.90;8.43;;;5.20;99.90;;;;;;5084496;28;20090;-72
2022/01/15 07:57:50;;;;;;;43.47;9.13;;;5.20;99.90;;;;;;5100997;28;20052;-73
2022/01/15 08:00:16;;;;;;;45.47;10.07;;;5.20;99.90;;;;;;5085796;28;20028;-72
2022/01/15 08:02:42;;;;;;;45.72;10.32;;;5.20;99.90;;;;;;5091591;28;20541;-72
2022/01/15 08:05:09;;;;;;;51.30;11.32;;;5.20;99.90;;;;;;5089406;28;20071;-72
2022/01/15 08:07:35;;;;;;;47.63;10.80;;;5.20;99.90;;;;;;5085122;28;20043;-72
2022/01/15 08:10:03;;;;;;;54.90;11.55;;;5.20;99.90;;;;;;5081293;28;20043;-73
2022/01/15 08:12:29;;;;;;;81.10;13.65;;;5.20;99.90;;;;;;5078262;28;20040;-73
2022/01/15 08:14:55;;;;;;;70.50;14.77;;;5.20;99.90;;;;;;5085844;28;20043;-73
2022/01/15 08:17:21;;;;;;;60.00;13.82;;;5.10;99.90;;;;;;5082353;28;20036;-74
2022/01/15 08:19:46;;;;;;;68.95;13.68;;;5.20;99.90;;;;;;5084387;28;20127;-70
2022/01/15 08:22:12;;;;;;;66.28;13.55;;;5.10;99.90;;;;;;5097465;28;20036;-74
2022/01/15 08:24:37;;;;;;;56.17;13.55;;;5.20;99.90;;;;;;5089494;28;20040;-73
2022/01/15 08:27:03;;;;;;;77.78;14.77;;;5.20;99.90;;;;;;5084199;28;20089;-71
2022/01/15 08:29:29;;;;;;;67.15;14.40;;;5.20;99.90;;;;;;5077641;28;20543;-71
2022/01/15 08:31:56;;;;;;;70.82;15.95;;;5.10;99.90;;;;;;5076861;28;20052;-73
2022/01/15 08:34:21;;;;;;;68.15;15.45;;;5.10;99.90;;;;;;5094526;28;20040;-72
2022/01/15 08:36:47;;;;;;;75.22;16.55;;;5.10;99.90;;;;;;5077955;28;20178;-71
2022/01/15 08:39:12;;;;;;;79.63;18.42;;;5.00;99.90;;;;;;5075505;28;20036;-72
2022/01/15 08:41:38;;;;;;;94.72;19.50;;;5.10;99.90;;;;;;5087575;28;20094;-73
2022/01/15 08:44:05;;;;;;;99.72;18.67;;;5.10;99.90;;;;;;5072986;28;20487;-71
2022/01/15 08:46:31;;;;;;;96.20;19.67;;;5.10;99.90;;;;;;5083299;28;20139;-72
2022/01/15 08:48:57;;;;;;;84.38;18.25;;;5.10;99.90;;;;;;5095577;28;20195;-72
2022/01/15 08:51:22;;;;;;;95.65;19.88;;;5.10;99.90;;;;;;5083207;28;20434;-72
2022/01/15 08:53:48;;;;;;;114.53;20.02;;;5.10;99.90;;;;;;5076623;28;20400;-72
2022/01/15 08:56:13;;;;;;;110.80;20.08;;;5.10;99.90;;;;;;5100053;28;20036;-71
2022/01/15 08:58:39;;;;;;;92.95;19.55;;;5.10;99.90;;;;;;5084470;28;20040;-71
2022/01/15 09:01:05;;;;;;;107.05;19.00;;;5.10;99.90;;;;;;5080258;28;20036;-72
2022/01/15 09:03:33;;;;;;;92.60;19.40;;;5.10;99.90;;;;;;5078789;28;20474;-70
2022/01/15 09:05:59;;;;;;;90.03;19.48;;;5.10;99.90;;;;;;5081877;28;20048;-70
2022/01/15 09:08:24;;;;;;;95.03;18.70;;;5.10;99.90;;;;;;5077353;28;20096;-71
2022/01/15 09:10:54;;;;;;;101.53;20.17;;;5.10;99.90;;;;;;5091028;28;20056;-72
2022/01/15 09:13:20;;;;;;;91.25;18.58;;;5.10;99.90;;;;;;5075013;28;20040;-72
2022/01/15 09:15:46;;;;;;;96.82;19.27;;;5.10;99.90;;;;;;5073099;28;20043;-72
2022/01/15 09:18:11;;;;;;;96.05;20.35;;;5.10;99.90;;;;;;5092881;28;20040;-72
2022/01/15 09:20:37;;;;;;;88.95;19.15;;;5.00;99.90;;;;;;5094750;28;20406;-72
2022/01/15 09:23:02;;;;;;;85.03;18.52;;;5.10;99.90;;;;;;5079826;28;20094;-72
2022/01/15 09:25:28;;;;;;;79.13;17.42;;;5.10;99.90;;;;;;5065453;28;20047;-73
2022/01/15 09:30:39;;;;;;;88.90;17.33;;;5.00;99.90;;;;;;5095706;28;20079;-74
2022/01/15 09:33:05;;;;;;;87.90;17.88;;;5.10;99.90;;;;;;5080918;28;20059;-72
2022/01/15 09:35:32;;;;;;;79.93;16.98;;;5.10;99.90;;;;;;5078677;28;20032;-71
2022/01/15 09:37:58;;;;;;;81.38;16.63;;;5.00;99.90;;;;;;5086914;28;20071;-72
2022/01/15 09:40:26;;;;;;;89.97;17.75;;;5.00;99.90;;;;;;5070162;28;20107;-73
2022/01/15 09:42:52;;;;;;;68.50;15.50;;;5.00;99.90;;;;;;5082264;28;20500;-72
2022/01/15 09:45:20;;;;;;;70.22;16.60;;;5.00;99.90;;;;;;5078181;28;20040;-73
2022/01/15 09:47:47;;;;;;;85.78;17.15;;;5.10;99.90;;;;;;5093513;28;20076;-72
2022/01/15 09:50:16;;;;;;;66.32;16.00;;;5.10;99.90;;;;;;5070924;28;20455;-72
2022/01/15 09:52:41;;;;;;;74.65;17.23;;;5.10;99.90;;;;;;5100097;27;20051;-73
2022/01/15 09:55:11;;;;;;;66.57;16.10;;;5.10;99.90;;;;;;5093422;28;20033;-72
2022/01/15 09:57:38;;;;;;;65.65;16.58;;;5.10;99.90;;;;;;5080018;28;20041;-70
2022/01/15 10:00:07;;;;;;;65.07;16.02;;;5.10;99.90;;;;;;5080613;28;20044;-72
2022/01/15 10:02:34;;;;;;;62.78;14.23;;;5.20;99.90;;;;;;5072205;28;20040;-72
2022/01/15 10:04:59;;;;;;;63.47;14.80;;;5.20;99.90;;;;;;5088398;28;20086;-74
2022/01/15 10:07:27;;;;;;;63.33;14.60;;;5.20;99.90;;;;;;5081024;28;20059;-71
2022/01/15 10:09:54;;;;;;;54.40;13.80;;;5.20;99.90;;;;;;5082668;28;20040;-73
2022/01/15 10:12:28;;;;;;;54.75;15.48;;;5.20;99.90;;;;;;5103459;27;20044;-71
2022/01/15 10:14:59;;;;;;;44.15;13.93;;;5.20;99.90;;;;;;5081273;28;20040;-71
2022/01/15 10:17:27;;;;;;;58.90;15.23;;;5.20;99.90;;;;;;5077339;28;20355;-70
2022/01/15 10:19:54;;;;;;;71.53;17.13;;;5.20;99.90;;;;;;5064255;28;20040;-71
2022/01/15 10:22:22;;;;;;;63.65;15.68;;;5.20;99.90;;;;;;5075487;28;20459;-71
2022/01/15 10:24:59;;;;;;;60.22;16.52;;;5.20;99.90;;;;;;5074685;28;20105;-72
2022/01/15 10:27:30;;;;;;;66.40;17.27;;;5.20;99.90;;;;;;5083263;28;20131;-71
2022/01/15 10:29:56;;;;;;;62.47;16.58;;;5.20;99.90;;;;;;5092687;28;20036;-71
2022/01/15 10:32:23;;;;;;;68.40;17.83;;;5.30;99.90;;;;;;5088260;28;20440;-72
2022/01/15 10:34:49;;;;;;;75.10;19.05;;;5.20;99.90;;;;;;5085802;28;20080;-71
2022/01/15 10:37:20;;;;;;;79.07;18.30;;;5.20;99.90;;;;;;5087775;28;20040;-70
2022/01/15 10:40:03;;;;;;;84.13;20.83;;;5.20;99.90;;;;;;5086378;28;20552;-72
2022/01/15 10:42:30;;;;;;;94.30;20.67;;;5.30;99.90;;;;;;5097824;27;20438;-72
2022/01/15 10:45:06;;;;;;;89.47;21.73;;;5.30;99.90;;;;;;5098979;28;20039;-72
2022/01/15 10:47:39;;;;;;;86.78;20.55;;;5.30;99.90;;;;;;5087845;28;20080;-70
2022/01/15 10:50:06;;;;;;;87.65;21.10;;;5.30;99.90;;;;;;5093778;28;20126;-72
2022/01/15 10:52:32;;;;;;;88.57;20.45;;;5.40;99.90;;;;;;5104928;28;20275;-71
2022/01/15 10:55:01;;;;;;;91.13;20.92;;;5.30;99.90;;;;;;5096230;28;20040;-74
2022/01/15 10:58:07;;;;;;;79.18;20.98;;;5.30;99.90;;;;;;5087410;28;20043;-69
2022/01/15 11:00:45;;;;;;;92.20;21.60;;;5.30;99.90;;;;;;5096480;28;20047;-71
2022/01/15 11:03:14;;;;;;;99.07;22.25;;;5.30;99.90;;;;;;5087600;28;20122;-70
2022/01/15 11:05:42;;;;;;;85.15;21.80;;;5.30;99.90;;;;;;5087237;28;20065;-71
2022/01/15 11:08:21;;;;;;;94.32;22.60;;;5.30;99.90;;;;;;5087842;28;20028;-71
2022/01/15 11:10:53;;;;;;;85.43;21.60;;;5.20;99.90;;;;;;5093513;28;20096;-73
2022/01/15 11:13:28;;;;;;;83.32;20.63;;;5.20;99.90;;;;;;5088088;28;20115;-71
2022/01/15 11:15:57;;;;;;;88.40;21.58;;;5.20;99.90;;;;;;5081430;28;20097;-72
2022/01/15 11:18:24;;;;;;;89.18;22.27;;;5.20;99.90;;;;;;5073540;28;20326;-71
2022/01/15 11:20:53;;;;;;;91.88;22.48;;;5.20;99.90;;;;;;5077250;28;20506;-70
2022/01/15 11:23:21;;;;;;;96.65;21.92;;;5.20;99.90;;;;;;5074071;28;20487;-71
2022/01/15 11:25:53;;;;;;;87.10;22.80;;;5.20;99.90;;;;;;5076357;28;20105;-73
2022/01/15 11:28:21;;;;;;;102.43;23.80;;;5.20;99.90;;;;;;5080135;28;20548;-73
2022/01/15 11:30:49;;;;;;;78.00;21.92;;;5.20;99.90;;;;;;5074868;28;20476;-72
2022/01/15 11:33:20;;;;;;;88.63;22.67;;;5.20;99.90;;;;;;5072286;28;20036;-70
2022/01/15 11:35:46;;;;;;;87.85;20.88;;;5.30;99.90;;;;;;5077045;28;20039;-70
2022/01/15 11:38:40;;;;;;;89.28;22.13;;;5.20;99.90;;;;;;5079714;28;20468;-71
2022/01/15 11:41:26;;;;;;;90.65;22.83;;;5.30;99.90;;;;;;5089194;28;20046;-70
2022/01/15 11:43:55;;;;;;;99.60;23.77;;;5.30;99.90;;;;;;5084225;28;20112;-69
2022/01/15 11:46:31;;;;;;;92.28;22.80;;;5.30;99.90;;;;;;5068917;28;20087;-71
2022/01/15 11:49:34;;;;;;;97.68;23.90;;;5.30;99.90;;;;;;5073508;28;20044;-71
2022/01/15 11:52:06;;;;;;;94.28;23.55;;;5.30;99.90;;;;;;5078335;28;20040;-70
2022/01/15 11:54:35;;;;;;;113.18;25.05;;;5.30;99.90;;;;;;5073096;28;20044;-70
2022/01/15 11:57:02;;;;;;;105.28;23.73;;;5.30;99.90;;;;;;5090050;28;20491;-71
2022/01/15 11:59:30;;;;;;;103.90;24.20;;;5.30;99.90;;;;;;5087387;28;20052;-69
2022/01/15 12:01:57;;;;;;;108.88;23.58;;;5.30;99.90;;;;;;5070928;28;20060;-71
2022/01/15 12:04:29;;;;;;;105.53;23.42;;;5.30;99.90;;;;;;5089817;28;20129;-72
2022/01/15 12:07:01;;;;;;;98.78;23.17;;;5.40;99.90;;;;;;5076730;28;20036;-71
2022/01/15 12:09:42;;;;;;;110.50;24.20;;;5.30;99.90;;;;;;5091725;28;20063;-70
2022/01/15 12:12:21;;;;;;;122.80;25.37;;;5.30;99.90;;;;;;5075816;28;20040;-71
2022/01/15 12:15:17;;;;;;;111.60;24.13;;;5.30;99.90;;;;;;5078780;28;20089;-72
2022/01/15 12:17:51;;;;;;;99.75;22.77;;;5.40;99.90;;;;;;5081629;28;20088;-72
2022/01/15 12:20:17;;;;;;;99.15;22.25;;;5.40;99.90;;;;;;5077909;28;20197;-71
2022/01/15 12:22:44;;;;;;;104.35;22.40;;;5.30;99.90;;;;;;5090597;28;20175;-70
2022/01/15 12:25:21;;;;;;;106.10;23.10;;;5.40;99.90;;;;;;5078067;28;20108;-70
2022/01/15 12:28:02;;;;;;;101.85;22.65;;;5.40;99.90;;;;;;5082206;28;20047;-72
2022/01/15 12:30:30;;;;;;;122.13;24.35;;;5.40;99.90;;;;;;5093023;28;20048;-70
2022/01/15 12:32:57;;;;;;;109.18;24.13;;;5.40;99.90;;;;;;5080258;28;20483;-71
2022/01/15 12:35:25;;;;;;;115.40;23.88;;;5.30;99.90;;;;;;5093272;28;20105;-71
2022/01/15 12:38:15;;;;;;;130.50;25.73;;;5.30;99.90;;;;;;5078081;28;20044;-71
2022/01/15 12:40:50;;;;;;;122.70;25.67;;;5.30;99.90;;;;;;5082000;28;20459;-74
2022/01/15 12:43:28;;;;;;;106.20;23.70;;;5.40;99.90;;;;;;5086899;28;20032;-70
2022/01/15 12:45:56;;;;;;;118.18;25.70;;;5.30;99.90;;;;;;5092049;28;20136;-71
2022/01/15 12:48:24;;;;;;;116.53;26.92;;;5.40;99.90;;;;;;5093946;28;20679;-70
2022/01/15 12:50:55;;;;;;;119.60;26.20;;;5.30;99.90;;;;;;5092894;28;20127;-70
2022/01/15 12:53:23;;;;;;;120.95;26.65;;;5.30;99.90;;;;;;5080093;28;20024;-71
2022/01/15 12:55:49;;;;;;;109.22;25.58;;;5.30;99.90;;;;;;5063051;28;20043;-71
2022/01/15 12:58:20;;;;;;;113.00;25.80;;;5.30;99.90;;;;;;5080959;28;20115;-70
2022/01/15 13:00:47;;;;;;;109.78;25.50;;;5.30;99.90;;;;;;5076065;28;20036;-70
2022/01/15 13:03:14;;;;;;;126.65;27.05;;;5.20;99.90;;;;;;5063666;28;20468;-73